createdAt,value
2022-12-27T00:00:29.805Z,3.11
2022-12-27T00:03:03.026Z,3.05
2022-12-27T00:05:35.796Z,2.95
2022-12-27T00:08:08.732Z,3.06
2022-12-27T00:10:42.166Z,2.93
2022-12-27T00:13:14.863Z,2.95
2022-12-27T00:15:48.087Z,2.98
2022-12-27T00:18:21.112Z,2.89
2022-12-27T00:20:58.298Z,3.11
2022-12-27T00:23:33.578Z,3.13
2022-12-27T00:26:08.096Z,2.99
2022-12-27T00:28:44.840Z,2.95
2022-12-27T00:31:21.345Z,2.99
2022-12-27T00:33:55.146Z,3.13
2022-12-27T00:36:29.517Z,3.09
2022-12-27T00:39:05.991Z,3.05
2022-12-27T00:41:38.788Z,2.90
2022-12-27T00:44:14.515Z,2.98
2022-12-27T00:46:47.299Z,3.18
2022-12-27T00:49:20.378Z,3.06
2022-12-27T00:51:53.105Z,3.06
2022-12-27T00:54:26.389Z,3.07
2022-12-27T00:56:59.224Z,3.10
2022-12-27T00:59:32.048Z,3.05
2022-12-27T01:02:04.956Z,2.92
2022-12-27T01:04:40.606Z,2.83
2022-12-27T01:07:13.441Z,3.03
2022-12-27T01:09:46.213Z,3.07
2022-12-27T01:12:22.102Z,3.27
2022-12-27T01:14:55.760Z,3.15
2022-12-27T01:17:29.260Z,3.26
2022-12-27T01:20:02.403Z,3.17
2022-12-27T01:22:35.231Z,3.17
2022-12-27T01:25:08.323Z,3.17
2022-12-27T01:27:41.216Z,3.22
2022-12-27T01:30:15.103Z,3.13
2022-12-27T01:32:48.015Z,3.15
2022-12-27T01:35:25.723Z,3.23
2022-12-27T01:37:58.707Z,3.11
2022-12-27T01:40:31.765Z,3.07
2022-12-27T01:43:04.753Z,3.12
2022-12-27T01:45:38.742Z,3.28
2022-12-27T01:48:11.679Z,3.29
2022-12-27T01:50:44.973Z,3.32
2022-12-27T01:53:22.162Z,3.44
2022-12-27T01:55:57.151Z,3.45
2022-12-27T01:58:29.957Z,3.40
2022-12-27T02:01:04.218Z,3.17
2022-12-27T02:03:39.730Z,3.13
2022-12-27T02:06:13.842Z,3.10
2022-12-27T02:08:52.042Z,3.13
2022-12-27T02:11:28.824Z,3.20
2022-12-27T02:14:01.989Z,3.12
2022-12-27T02:16:34.974Z,3.17
2022-12-27T02:19:23.126Z,3.27
2022-12-27T02:22:01.670Z,3.10
2022-12-27T02:24:38.124Z,3.18
2022-12-27T02:27:14.146Z,3.11
2022-12-27T02:29:52.502Z,3.09
2022-12-27T02:32:36.722Z,3.07
2022-12-27T02:35:22.320Z,3.31
2022-12-27T02:37:57.432Z,3.07
2022-12-27T02:40:31.317Z,3.13
2022-12-27T02:43:04.959Z,3.19
2022-12-27T02:45:41.410Z,3.27
2022-12-27T02:48:20.087Z,3.15
2022-12-27T02:51:02.497Z,3.13
2022-12-27T02:53:47.798Z,3.34
2022-12-27T02:56:46.903Z,3.30
2022-12-27T02:59:22.401Z,3.34
2022-12-27T03:01:56.276Z,3.35
2022-12-27T03:05:05.024Z,3.27
2022-12-27T03:07:49.132Z,3.39
2022-12-27T03:10:22.148Z,3.44
2022-12-27T03:13:07.292Z,3.63
2022-12-27T03:15:52.401Z,3.45
2022-12-27T03:18:25.545Z,3.32
2022-12-27T03:20:59.607Z,3.29
2022-12-27T03:23:36.084Z,3.44
2022-12-27T03:26:09.993Z,3.46
2022-12-27T03:28:47.886Z,3.46
2022-12-27T03:31:29.026Z,3.47
2022-12-27T03:34:05.085Z,3.31
2022-12-27T03:36:41.687Z,3.27
2022-12-27T03:39:17.392Z,3.40
2022-12-27T03:41:55.074Z,3.44
2022-12-27T03:44:28.148Z,3.24
2022-12-27T03:47:07.066Z,3.24
2022-12-27T03:49:44.004Z,3.41
2022-12-27T03:52:25.364Z,3.22
2022-12-27T03:55:01.022Z,3.17
2022-12-27T03:57:35.253Z,3.16
2022-12-27T04:00:12.184Z,3.22
2022-12-27T04:02:45.972Z,3.36
2022-12-27T04:05:19.803Z,3.35
2022-12-27T04:07:52.694Z,3.17
2022-12-27T04:10:25.419Z,3.13
2022-12-27T04:12:58.259Z,3.27
2022-12-27T04:15:31.342Z,3.14
2022-12-27T04:18:06.882Z,3.20
2022-12-27T04:20:43.282Z,3.05
2022-12-27T04:23:16.527Z,3.15
2022-12-27T04:25:52.635Z,3.26
2022-12-27T04:28:25.935Z,3.29
2022-12-27T04:31:04.423Z,3.19
2022-12-27T04:33:37.252Z,3.13
2022-12-27T04:36:13.973Z,2.99
2022-12-27T04:38:47.126Z,3.07
2022-12-27T04:41:20.488Z,3.11
2022-12-27T04:43:53.403Z,2.84
2022-12-27T04:46:27.166Z,2.97
2022-12-27T04:48:59.856Z,3.09
2022-12-27T04:51:32.696Z,2.93
2022-12-27T04:54:23.296Z,2.83
2022-12-27T04:57:12.588Z,2.98
2022-12-27T04:59:46.378Z,2.91
2022-12-27T05:02:20.178Z,7.41
2022-12-27T05:04:58.969Z,9.03
2022-12-27T05:07:32.568Z,9.19
2022-12-27T05:10:06.443Z,9.14
2022-12-27T05:12:40.869Z,9.56
2022-12-27T05:15:14.397Z,8.59
2022-12-27T05:17:47.822Z,5.33
2022-12-27T05:20:21.326Z,5.33
2022-12-27T05:22:57.428Z,4.50
2022-12-27T05:25:30.406Z,3.89
2022-12-27T05:28:08.007Z,3.53
2022-12-27T05:30:42.536Z,3.59
2022-12-27T05:33:15.254Z,4.23
2022-12-27T05:35:53.326Z,7.79
2022-12-27T05:38:26.588Z,4.91
2022-12-27T05:41:02.960Z,4.24
2022-12-27T05:43:39.458Z,3.78
2022-12-27T05:46:13.984Z,3.41
2022-12-27T05:48:50.304Z,3.19
2022-12-27T05:51:23.091Z,3.13
2022-12-27T05:53:55.828Z,3.05
2022-12-27T05:56:28.618Z,3.13
2022-12-27T05:59:01.508Z,2.97
2022-12-27T06:01:34.444Z,2.88
2022-12-27T06:04:07.268Z,2.95
2022-12-27T06:06:40.932Z,2.92
2022-12-27T06:09:14.684Z,2.89
2022-12-27T06:11:47.878Z,2.93
2022-12-27T06:14:22.018Z,2.86
2022-12-27T06:16:58.003Z,2.72
2022-12-27T06:19:31.025Z,2.85
2022-12-27T06:22:07.268Z,3.00
2022-12-27T06:24:42.917Z,2.94
2022-12-27T06:27:18.944Z,3.19
2022-12-27T06:29:51.622Z,3.13
2022-12-27T06:32:28.161Z,2.99
2022-12-27T06:35:01.459Z,3.07
2022-12-27T06:37:34.310Z,3.24
2022-12-27T06:40:07.477Z,3.19
2022-12-27T06:42:45.840Z,3.04
2022-12-27T06:45:21.472Z,3.03
2022-12-27T06:47:54.533Z,3.16
2022-12-27T06:50:27.492Z,3.30
2022-12-27T06:53:00.416Z,3.30
2022-12-27T06:55:37.227Z,3.33
2022-12-27T06:58:10.456Z,3.44
2022-12-27T07:00:43.742Z,3.41
2022-12-27T07:03:18.967Z,3.58
2022-12-27T07:05:52.355Z,3.81
2022-12-27T07:08:29.132Z,3.86
2022-12-27T07:11:07.876Z,4.09
2022-12-27T07:13:46.959Z,4.25
2022-12-27T07:16:24.948Z,5.09
2022-12-27T07:18:59.644Z,6.04
2022-12-27T07:21:32.598Z,6.39
2022-12-27T07:24:12.305Z,6.72
2022-12-27T07:26:51.490Z,6.40
2022-12-27T07:29:24.947Z,6.35
2022-12-27T07:32:01.019Z,6.13
2022-12-27T07:34:37.441Z,5.81
2022-12-27T07:37:12.920Z,6.11
2022-12-27T07:39:47.291Z,6.05
2022-12-27T07:42:26.640Z,6.56
2022-12-27T07:45:02.408Z,6.82
2022-12-27T07:47:38.181Z,7.56
2022-12-27T07:50:14.587Z,7.72
2022-12-27T07:52:53.473Z,8.46
2022-12-27T07:55:34.430Z,8.61
2022-12-27T07:58:10.894Z,9.21
2022-12-27T08:00:46.208Z,9.70
2022-12-27T08:03:19.531Z,10.02
2022-12-27T08:05:58.817Z,9.89
2022-12-27T08:08:40.548Z,10.09
2022-12-27T08:11:16.734Z,10.14
2022-12-27T08:13:49.662Z,10.30
2022-12-27T08:16:26.649Z,10.60
2022-12-27T08:19:08.158Z,10.38
2022-12-27T08:21:41.625Z,10.69
2022-12-27T08:24:20.201Z,10.77
2022-12-27T08:26:56.732Z,11.42
2022-12-27T08:29:32.674Z,11.98
2022-12-27T08:32:07.811Z,12.95
2022-12-27T08:34:42.056Z,13.48
2022-12-27T08:37:16.084Z,13.77
2022-12-27T08:39:49.262Z,14.76
2022-12-27T08:42:22.661Z,14.87
2022-12-27T08:44:58.592Z,14.34
2022-12-27T08:47:32.902Z,14.42
2022-12-27T08:50:08.984Z,14.43
2022-12-27T08:52:42.765Z,14.61
2022-12-27T08:55:19.776Z,14.79
2022-12-27T08:57:57.150Z,15.15
2022-12-27T09:00:40.633Z,15.48
2022-12-27T09:03:15.025Z,15.32
2022-12-27T09:05:50.675Z,14.63
2022-12-27T09:08:27.341Z,14.88
2022-12-27T09:11:11.100Z,13.87
2022-12-27T09:13:44.827Z,13.04
2022-12-27T09:16:23.521Z,12.87
2022-12-27T09:18:58.003Z,12.62
2022-12-27T09:21:32.037Z,12.24
2022-12-27T09:24:05.363Z,11.92
2022-12-27T09:26:38.595Z,12.12
2022-12-27T09:29:12.156Z,11.75
2022-12-27T09:31:45.071Z,11.72
2022-12-27T09:34:24.028Z,11.57
2022-12-27T09:36:59.589Z,11.78
2022-12-27T09:39:33.175Z,11.75
2022-12-27T09:45:14.816Z,11.49
2022-12-27T09:47:56.862Z,11.88
2022-12-27T09:50:44.576Z,11.73
2022-12-27T09:53:27.020Z,11.87
2022-12-27T09:56:00.128Z,11.99
2022-12-27T09:58:39.260Z,12.14
2022-12-27T10:01:22.068Z,12.18
2022-12-27T10:03:55.246Z,12.29
2022-12-27T10:06:40.875Z,12.18
2022-12-27T10:09:26.003Z,12.37
2022-12-27T10:12:14.418Z,12.10
2022-12-27T10:14:59.484Z,12.17
2022-12-27T10:17:41.676Z,12.28
2022-12-27T10:20:14.697Z,12.42
2022-12-27T10:22:53.361Z,12.34
2022-12-27T10:25:30.301Z,12.33
2022-12-27T10:28:23.699Z,12.62
2022-12-27T10:31:01.266Z,12.55
2022-12-27T10:33:35.327Z,12.49
2022-12-27T10:36:13.960Z,12.63
2022-12-27T10:38:47.092Z,12.80
2022-12-27T10:41:29.310Z,12.98
2022-12-27T10:44:10.879Z,13.38
2022-12-27T10:46:49.620Z,13.28
2022-12-27T10:49:25.544Z,13.44
2022-12-27T10:52:10.997Z,13.38
2022-12-27T10:54:51.616Z,13.27
2022-12-27T10:57:24.994Z,13.62
2022-12-27T11:00:16.073Z,13.76
2022-12-27T11:03:00.607Z,13.47
2022-12-27T11:05:34.977Z,13.34
2022-12-27T11:08:28.632Z,13.29
2022-12-27T11:11:15.279Z,13.25
2022-12-27T11:13:48.549Z,13.35
2022-12-27T11:16:31.273Z,13.17
2022-12-27T11:19:04.847Z,13.36
2022-12-27T11:21:39.519Z,13.29
2022-12-27T11:24:16.278Z,13.20
2022-12-27T11:26:54.845Z,13.69
2022-12-27T11:29:33.334Z,13.77
2022-12-27T11:32:07.932Z,13.53
2022-12-27T11:34:44.540Z,13.50
2022-12-27T11:37:19.646Z,13.63
2022-12-27T11:39:56.053Z,13.59
2022-12-27T11:42:33.877Z,14.05
2022-12-27T11:45:12.567Z,14.30
2022-12-27T11:47:49.950Z,14.56
2022-12-27T11:50:29.052Z,14.48
2022-12-27T11:53:31.666Z,14.48
2022-12-27T11:56:07.451Z,14.52
2022-12-27T11:58:43.870Z,14.53
2022-12-27T12:01:29.823Z,14.15
2022-12-27T12:04:18.327Z,14.13
2022-12-27T12:07:03.413Z,14.04
2022-12-27T12:09:38.719Z,13.82
2022-12-27T12:12:28.117Z,13.72
2022-12-27T12:15:01.158Z,13.44
2022-12-27T12:17:39.495Z,13.55
2022-12-27T12:20:31.070Z,13.54
2022-12-27T12:23:12.418Z,13.38
2022-12-27T12:25:51.231Z,14.56
2022-12-27T12:28:59.623Z,14.94
2022-12-27T12:31:36.066Z,15.03
2022-12-27T12:34:28.202Z,14.72
2022-12-27T12:37:17.672Z,14.06
2022-12-27T12:40:03.951Z,14.01
2022-12-27T12:42:50.745Z,13.77
2022-12-27T12:45:47.016Z,13.66
2022-12-27T12:48:39.102Z,13.69
2022-12-27T12:51:15.076Z,13.66
2022-12-27T12:53:55.005Z,13.67
2022-12-27T12:56:55.886Z,13.67
2022-12-27T12:59:35.178Z,13.74
2022-12-27T13:02:18.140Z,13.73
2022-12-27T13:04:53.776Z,13.66
2022-12-27T13:07:39.623Z,13.64
2022-12-27T13:10:31.249Z,13.68
2022-12-27T13:13:30.876Z,13.64
2022-12-27T13:16:28.075Z,13.59
2022-12-27T13:19:01.608Z,13.59
2022-12-27T13:21:37.686Z,13.56
2022-12-27T13:24:30.072Z,13.54
2022-12-27T13:27:25.756Z,13.53
2022-12-27T13:30:21.923Z,13.66
2022-12-27T13:33:15.242Z,13.67
2022-12-27T13:35:49.515Z,13.61
2022-12-27T13:38:31.597Z,13.56
2022-12-27T13:41:07.739Z,13.64
2022-12-27T13:43:41.670Z,13.54
2022-12-27T13:46:40.044Z,13.49
2022-12-27T13:49:41.690Z,13.50
2022-12-27T13:52:35.742Z,13.42
2022-12-27T13:55:27.480Z,13.42
2022-12-27T13:58:22.772Z,13.38
2022-12-27T14:01:15.889Z,13.42
2022-12-27T14:03:55.275Z,13.39
2022-12-27T14:06:28.195Z,13.24
2022-12-27T14:09:10.470Z,13.45
2022-12-27T14:11:56.789Z,13.17
2022-12-27T14:14:30.911Z,12.99
2022-12-27T14:17:22.752Z,13.10
2022-12-27T14:20:09.658Z,12.97
2022-12-27T14:23:16.248Z,12.83
2022-12-27T14:26:08.692Z,12.71
2022-12-27T14:29:01.314Z,12.94
2022-12-27T14:31:34.271Z,12.72
2022-12-27T14:34:26.384Z,12.57
2022-12-27T14:37:14.162Z,12.52
2022-12-27T14:40:05.660Z,12.55
2022-12-27T14:43:03.119Z,12.53
2022-12-27T14:46:06.043Z,12.41
2022-12-27T14:48:42.387Z,12.35
2022-12-27T14:51:59.390Z,12.30
2022-12-27T14:54:28.904Z,12.28
2022-12-27T14:57:02.471Z,12.16
2022-12-27T14:59:45.413Z,12.26
2022-12-27T15:02:30.396Z,12.18
2022-12-27T15:05:14.543Z,12.06
2022-12-27T15:07:48.030Z,12.29
2022-12-27T15:10:33.327Z,12.24
2022-12-27T15:13:27.898Z,12.05
2022-12-27T15:16:15.093Z,11.95
2022-12-27T15:18:54.108Z,13.04
2022-12-27T15:21:30.027Z,12.32
2022-12-27T15:24:09.848Z,12.11
2022-12-27T15:26:53.136Z,12.17
2022-12-27T15:29:31.917Z,12.32
2022-12-27T15:32:15.324Z,12.20
2022-12-27T15:34:48.384Z,12.05
2022-12-27T15:37:40.239Z,12.12
2022-12-27T15:40:31.962Z,12.26
2022-12-27T15:43:25.105Z,12.09
2022-12-27T15:46:16.898Z,11.97
2022-12-27T15:49:20.947Z,12.23
2022-12-27T15:51:58.746Z,12.05
2022-12-27T15:54:31.794Z,12.07
2022-12-27T15:57:08.119Z,12.99
2022-12-27T15:59:43.219Z,14.11
2022-12-27T16:02:34.803Z,14.21
2022-12-27T16:05:12.472Z,12.71
2022-12-27T16:07:52.105Z,12.57
2022-12-27T16:10:31.316Z,12.26
2022-12-27T16:13:04.429Z,12.10
2022-12-27T16:15:37.626Z,11.97
2022-12-27T16:18:16.611Z,11.85
2022-12-27T16:21:00.877Z,11.79
2022-12-27T16:23:38.719Z,11.77
2022-12-27T16:26:32.384Z,11.62
2022-12-27T16:29:11.563Z,11.75
2022-12-27T16:32:04.451Z,11.65
2022-12-27T16:34:42.612Z,11.53
2022-12-27T16:37:27.587Z,11.54
2022-12-27T16:40:16.816Z,11.63
2022-12-27T16:42:49.710Z,11.61
2022-12-27T16:45:38.360Z,11.79
2022-12-27T16:48:25.278Z,11.80
2022-12-27T16:50:58.213Z,11.64
2022-12-27T16:53:49.991Z,11.66
2022-12-27T16:56:31.414Z,11.55
2022-12-27T16:59:24.396Z,11.61
2022-12-27T17:01:58.318Z,13.45
2022-12-27T17:04:49.638Z,13.88
2022-12-27T17:07:38.291Z,14.96
2022-12-27T17:10:29.719Z,14.85
2022-12-27T17:13:23.221Z,14.74
2022-12-27T17:16:00.920Z,14.53
2022-12-27T17:18:36.886Z,13.36
2022-12-27T17:21:26.148Z,12.56
2022-12-27T17:24:05.589Z,12.06
2022-12-27T17:26:45.005Z,11.62
2022-12-27T17:29:24.813Z,11.58
2022-12-27T17:32:21.421Z,11.43
2022-12-27T17:35:01.383Z,11.32
2022-12-27T17:37:34.307Z,11.34
2022-12-27T17:40:31.846Z,11.29
2022-12-27T17:43:33.825Z,11.09
2022-12-27T17:46:16.195Z,11.06
2022-12-27T17:48:52.395Z,11.34
2022-12-27T17:51:30.792Z,11.22
2022-12-27T17:54:21.063Z,11.21
2022-12-27T17:56:59.441Z,11.10
2022-12-27T17:59:33.613Z,11.10
2022-12-27T18:02:14.256Z,10.95
2022-12-27T18:04:53.123Z,10.94
2022-12-27T18:07:30.530Z,10.99
2022-12-27T18:10:22.175Z,11.18
2022-12-27T18:12:58.218Z,10.85
2022-12-27T18:15:33.019Z,12.21
2022-12-27T18:18:07.367Z,12.84
2022-12-27T18:20:40.730Z,13.72
2022-12-27T18:23:18.247Z,12.54
2022-12-27T18:25:51.163Z,11.78
2022-12-27T18:28:32.917Z,11.54
2022-12-27T18:31:15.758Z,11.53
2022-12-27T18:33:51.084Z,11.30
2022-12-27T18:36:33.681Z,10.97
2022-12-27T18:39:18.645Z,10.99
2022-12-27T18:41:53.359Z,10.88
2022-12-27T18:44:28.465Z,10.79
2022-12-27T18:47:02.712Z,10.71
2022-12-27T18:49:36.844Z,10.93
2022-12-27T18:52:22.131Z,10.80
2022-12-27T18:54:55.101Z,10.80
2022-12-27T18:57:35.528Z,10.71
2022-12-27T19:00:24.888Z,10.80
2022-12-27T19:03:14.510Z,10.64
2022-12-27T19:06:00.476Z,10.64
2022-12-27T19:08:53.585Z,10.80
2022-12-27T19:11:31.681Z,10.68
2022-12-27T19:14:13.592Z,10.63
2022-12-27T19:16:52.768Z,10.47
2022-12-27T19:19:29.800Z,10.61
2022-12-27T19:22:22.790Z,10.50
2022-12-27T19:25:02.136Z,10.53
2022-12-27T19:27:35.115Z,10.55
2022-12-27T19:30:28.065Z,10.77
2022-12-27T19:33:02.550Z,10.63
2022-12-27T19:35:36.073Z,10.44
2022-12-27T19:38:18.583Z,10.59
2022-12-27T19:40:58.114Z,10.72
2022-12-27T19:43:37.327Z,10.58
2022-12-27T19:46:11.110Z,10.35
2022-12-27T19:48:46.221Z,10.65
2022-12-27T19:51:24.446Z,10.56
2022-12-27T19:53:58.389Z,10.36
2022-12-27T19:56:32.451Z,10.41
2022-12-27T19:59:05.850Z,10.56
2022-12-27T20:01:39.177Z,10.57
2022-12-27T20:04:13.057Z,10.35
2022-12-27T20:06:47.848Z,10.30
2022-12-27T20:09:21.536Z,10.44
2022-12-27T20:11:54.800Z,10.36
2022-12-27T20:14:27.733Z,10.24
2022-12-27T20:17:00.804Z,10.24
2022-12-27T20:19:34.056Z,10.34
2022-12-27T20:22:06.947Z,10.15
2022-12-27T20:24:40.169Z,10.17
2022-12-27T20:27:13.073Z,10.13
2022-12-27T20:29:46.260Z,10.25
2022-12-27T20:32:19.353Z,10.32
2022-12-27T20:34:52.352Z,10.33
2022-12-27T20:37:25.319Z,10.19
2022-12-27T20:39:58.717Z,10.35
2022-12-27T20:42:31.661Z,10.21
2022-12-27T20:45:04.829Z,10.13
2022-12-27T20:47:37.861Z,10.17
2022-12-27T20:50:10.804Z,10.28
2022-12-27T20:52:43.936Z,10.06
2022-12-27T20:55:17.229Z,10.02
2022-12-27T20:57:50.272Z,9.98
2022-12-27T21:00:23.487Z,10.36
2022-12-27T21:02:57.009Z,10.25
2022-12-27T21:05:30.282Z,10.00
2022-12-27T21:08:03.411Z,10.21
2022-12-27T21:10:36.392Z,10.01
2022-12-27T21:13:09.452Z,9.96
2022-12-27T21:15:48.233Z,9.81
2022-12-27T21:18:21.377Z,9.93
2022-12-27T21:20:54.894Z,9.96
2022-12-27T21:23:32.076Z,10.12
2022-12-27T21:26:12.081Z,10.01
2022-12-27T21:28:45.401Z,10.00
2022-12-27T21:31:22.506Z,9.96
2022-12-27T21:33:55.500Z,9.98
2022-12-27T21:36:31.459Z,10.03
2022-12-27T21:39:05.207Z,10.25
2022-12-27T21:41:41.822Z,10.05
2022-12-27T21:44:17.228Z,9.89
2022-12-27T21:46:50.248Z,9.97
2022-12-27T21:49:22.986Z,10.01
2022-12-27T21:51:56.104Z,10.05
2022-12-27T21:54:32.036Z,9.88
2022-12-27T21:57:05.357Z,9.88
2022-12-27T21:59:38.311Z,9.90
2022-12-27T22:02:11.635Z,9.81
2022-12-27T22:04:45.105Z,9.82
2022-12-27T22:07:18.570Z,9.68
2022-12-27T22:09:52.106Z,9.85
2022-12-27T22:12:25.381Z,9.86
2022-12-27T22:14:58.199Z,9.83
2022-12-27T22:17:35.568Z,9.70
2022-12-27T22:20:08.946Z,10.03
2022-12-27T22:22:41.969Z,9.85
2022-12-27T22:25:15.180Z,9.74
2022-12-27T22:27:48.159Z,9.71
2022-12-27T22:30:21.210Z,9.87
2022-12-27T22:32:55.272Z,9.88
2022-12-27T22:35:28.315Z,9.75
2022-12-27T22:38:01.741Z,9.73
2022-12-27T22:40:41.523Z,9.78
2022-12-27T22:43:19.651Z,9.80
2022-12-27T22:45:53.997Z,9.62
2022-12-27T22:48:27.154Z,9.71
2022-12-27T22:51:05.415Z,9.63
2022-12-27T22:53:38.571Z,9.72
2022-12-27T22:56:15.379Z,9.60
2022-12-27T22:58:48.765Z,9.50
2022-12-27T23:01:23.124Z,9.49
2022-12-27T23:03:57.254Z,9.37
2022-12-27T23:06:31.137Z,9.46
2022-12-27T23:09:04.698Z,9.61
2022-12-27T23:11:38.768Z,9.61
2022-12-27T23:14:13.735Z,9.53
2022-12-27T23:16:47.867Z,9.37
2022-12-27T23:19:21.779Z,9.48
2022-12-27T23:21:55.144Z,9.50
2022-12-27T23:24:28.427Z,9.42
2022-12-27T23:27:01.330Z,9.37
2022-12-27T23:29:34.361Z,9.55
2022-12-27T23:32:10.648Z,9.51
2022-12-27T23:34:43.615Z,9.23
2022-12-27T23:37:16.539Z,9.34
2022-12-27T23:39:50.098Z,9.29
2022-12-27T23:42:23.213Z,9.11
2022-12-27T23:44:56.257Z,8.92
2022-12-27T23:47:29.309Z,8.87
2022-12-27T23:50:02.767Z,8.95
2022-12-27T23:52:35.972Z,8.93
2022-12-27T23:55:09.704Z,8.81
2022-12-27T23:57:42.862Z,8.70
